Ironman — ZJL9315 — position and weather

sailwx.info

Track history (hours):
 
Tides and Currents Weather Stations Pressure Air Temp Water Temp Dewpoint Dewpoint Depression Visibility Wind Speed Wind Dir Waves Ship Positions

Ironman

Last reported at 2017-Sep-07 17:14 UTC. Time now 2017-Sep-20 02:00 UTC.
Position N 26°06' W 080°10'.
Warning: this ship's position is 12 days out of date.

Length 38 m; draft 2 m.

Type: Pleasure craft. MMSI: 378112331.

Date/timePositionNaut miles runAvg speedWind from/ knotsBaromVisibWave heightAir tempDewpointWater temp
2017-Sep-07 17:14N 26°06' W 080°10'0 0.0
2017-Sep-07 16:44N 26°06' W 080°10'0 0.0
2017-Sep-07 16:29N 26°06' W 080°10'0 0.0
2017-Sep-07 15:59N 26°06' W 080°10'0 0.0
2017-Sep-07 15:29N 26°06' W 080°10'0 0.0
2017-Sep-07 14:59N 26°06' W 080°10'0 0.0
2017-Sep-07 14:29N 26°06' W 080°10'0 0.0
2017-Sep-07 13:59N 26°06' W 080°10'0 0.0
2017-Sep-07 13:30N 26°06' W 080°10'0 0.0
2017-Sep-07 13:00N 26°06' W 080°10'0 0.0
2017-Sep-07 12:30N 26°06' W 080°10'0 0.0
2017-Sep-07 12:00N 26°06' W 080°10'0 0.0
2017-Sep-07 11:30N 26°06' W 080°10'0 0.0
2017-Sep-07 11:00N 26°06' W 080°10'0 0.0
2017-Sep-07 10:30N 26°06' W 080°10'0 0.0
2017-Sep-07 10:00N 26°06' W 080°10'0 0.0
2017-Sep-07 09:30N 26°06' W 080°10'0 0.0
2017-Sep-07 09:00N 26°06' W 080°10'0 0.0
2017-Sep-07 08:30N 26°06' W 080°10'0 0.0
2017-Sep-07 08:00N 26°06' W 080°10'0 0.0
2017-Sep-07 07:30N 26°06' W 080°10'0 0.0
2017-Sep-07 07:00N 26°06' W 080°10'0 0.0
2017-Sep-07 06:30N 26°06' W 080°10'0 0.0
2017-Sep-07 06:00N 26°06' W 080°10'0 0.0
2017-Sep-07 05:30N 26°06' W 080°10'0 0.0
2017-Sep-07 05:00N 26°06' W 080°10'0 0.0
2017-Sep-07 04:30N 26°06' W 080°10'0 0.0
2017-Sep-07 04:00N 26°06' W 080°10'0 0.0
2017-Sep-07 03:30N 26°06' W 080°10'0 0.0
2017-Sep-07 03:00N 26°06' W 080°10'0 0.0
2017-Sep-07 02:30N 26°06' W 080°10'0 0.0
2017-Sep-07 02:00N 26°06' W 080°10'0 0.0
2017-Sep-07 01:30N 26°06' W 080°10'0 0.0
2017-Sep-07 01:01N 26°06' W 080°10'0 0.0
2017-Sep-07 00:30N 26°06' W 080°10'0 0.0
2017-Sep-07 00:00N 26°06' W 080°10'0 0.1
2017-Sep-06 23:30N 26°06' W 080°10'2 3.7
2017-Sep-06 23:00N 26°07' W 080°08'2 3.7
2017-Sep-06 22:30N 26°06' W 080°07'2 5.0
2017-Sep-06 22:01N 26°05' W 080°04'0 0.5
2017-Sep-06 21:30N 26°05' W 080°05'0 0.1
2017-Sep-06 21:00N 26°05' W 080°05'0 0.1
2017-Sep-06 20:30N 26°04' W 080°05'2 4.3
2017-Sep-06 20:00N 26°02' W 080°05'612.2
2017-Sep-06 19:30N 25°56' W 080°05'611.2
2017-Sep-06 19:00N 25°51' W 080°05'2 4.0
2017-Sep-06 18:31N 25°49' W 080°06'3 6.7
2017-Sep-06 18:00N 25°45' W 080°07'2 3.2
2017-Sep-06 17:28N 25°46' W 080°08'0 0.0
2017-Sep-06 16:55N 25°46' W 080°08'0 0.0
2017-Sep-06 16:28N 25°46' W 080°08'0 0.0
2017-Sep-06 15:58N 25°46' W 080°08'0 0.2
2017-Sep-06 15:28N 25°46' W 080°09'0 0.0
2017-Sep-06 14:58N 25°46' W 080°09'0 0.0
2017-Sep-06 14:25N 25°46' W 080°09'0 0.0
2017-Sep-06 13:58N 25°46' W 080°09'0 0.0
2017-Sep-06 13:28N 25°46' W 080°09'0 0.0
2017-Sep-06 12:55N 25°46' W 080°09'0 0.0
2017-Sep-06 12:28N 25°46' W 080°09'0 0.0
2017-Sep-06 11:58N 25°46' W 080°09'0 0.0
2017-Sep-06 11:25N 25°46' W 080°09'0 0.0
2017-Sep-06 10:58N 25°46' W 080°09'0 0.0
2017-Sep-06 10:28N 25°46' W 080°09'0 0.0
2017-Sep-06 09:58N 25°46' W 080°09'0 0.0
2017-Sep-06 09:25N 25°46' W 080°09'0 0.0
2017-Sep-06 08:58N 25°46' W 080°09'0 0.0
2017-Sep-06 08:28N 25°46' W 080°09'0 0.0
2017-Sep-06 07:58N 25°46' W 080°09'0 0.0
2017-Sep-06 07:28N 25°46' W 080°09'0 0.0
2017-Sep-06 06:58N 25°46' W 080°09'0 0.0
2017-Sep-06 06:28N 25°46' W 080°09'0 0.0
2017-Sep-06 05:58N 25°46' W 080°09'0 0.0
2017-Sep-06 05:28N 25°46' W 080°09'0 0.0
2017-Sep-06 04:58N 25°46' W 080°09'0 0.0
2017-Sep-06 04:28N 25°46' W 080°09'0 0.0
2017-Sep-06 03:58N 25°46' W 080°09'0 0.0
2017-Sep-06 03:28N 25°46' W 080°09'0 0.0
2017-Sep-06 02:52N 25°46' W 080°09'0 0.0
2017-Sep-06 02:25N 25°46' W 080°09'0 0.0
2017-Sep-06 01:58N 25°46' W 080°09'0 0.0
2017-Sep-06 01:28N 25°46' W 080°09'0 0.0
2017-Sep-06 00:52N 25°46' W 080°09'0 0.0
2017-Sep-06 00:28N 25°46' W 080°09'0 0.0
2017-Sep-05 23:58N 25°46' W 080°09'0 0.0
2017-Sep-05 23:19N 25°46' W 080°09'0 0.0
2017-Sep-05 22:55N 25°46' W 080°09'0 0.0
2017-Sep-05 22:28N 25°46' W 080°09'0 0.0
2017-Sep-05 21:55N 25°46' W 080°09'0 0.0
2017-Sep-05 21:28N 25°46' W 080°09'0 0.0
2017-Sep-05 20:58N 25°46' W 080°09'0 0.0
2017-Sep-05 20:28N 25°46' W 080°09'0 0.0
2017-Sep-05 19:58N 25°46' W 080°09'0 0.0
2017-Sep-05 19:28N 25°46' W 080°09'0 0.0
2017-Sep-05 18:58N 25°46' W 080°09'0 0.0
2017-Sep-05 18:28N 25°46' W 080°09'0 0.0
2017-Sep-05 17:58N 25°46' W 080°09'0 0.0
2017-Sep-05 17:28N 25°46' W 080°09'0 0.0
2017-Sep-05 16:58N 25°46' W 080°09'0 0.0
2017-Sep-05 16:28N 25°46' W 080°09'0 0.0
2017-Sep-05 15:58N 25°46' W 080°09'0 0.0
2017-Sep-05 15:28N 25°46' W 080°09'0 0.0
2017-Sep-05 14:58N 25°46' W 080°09'0 0.0
2017-Sep-05 14:28N 25°46' W 080°09'0 0.0
2017-Sep-05 13:52N 25°46' W 080°09'0 0.0
2017-Sep-05 13:25N 25°46' W 080°09'0 0.0
2017-Sep-05 12:55N 25°46' W 080°09'0 0.0
2017-Sep-05 12:28N 25°46' W 080°09'0 0.0
2017-Sep-05 11:58N 25°46' W 080°09'0 0.0
2017-Sep-05 11:28N 25°46' W 080°09'0 0.0
2017-Sep-05 10:52N 25°46' W 080°09'0 0.0
2017-Sep-05 10:31N 25°46' W 080°09'0 0.0
2017-Sep-05 09:58N 25°46' W 080°09'0 0.0
2017-Sep-05 09:28N 25°46' W 080°09'0 0.0
2017-Sep-05 08:58N 25°46' W 080°09'0 0.0
2017-Sep-05 08:28N 25°46' W 080°09'0 0.0
2017-Sep-05 07:58N 25°46' W 080°09'0 0.0
2017-Sep-05 07:28N 25°46' W 080°09'0 0.0
2017-Sep-05 06:55N 25°46' W 080°09'0 0.0
2017-Sep-05 06:28N 25°46' W 080°09'0 0.0
2017-Sep-05 05:55N 25°46' W 080°09'0 0.0
2017-Sep-05 05:28N 25°46' W 080°09'0 0.0
2017-Sep-05 04:58N 25°46' W 080°09'0 0.0
2017-Sep-05 04:28N 25°46' W 080°09'0 0.0
2017-Sep-05 03:58N 25°46' W 080°09'0 0.0
2017-Sep-05 03:28N 25°46' W 080°09'0 0.0
2017-Sep-05 02:58N 25°46' W 080°09'0 0.0
2017-Sep-05 02:28N 25°46' W 080°09'0 0.0
2017-Sep-05 02:00N 25°46' W 080°09'0 0.0
2017-Sep-05 01:28N 25°46' W 080°09'0 0.0
2017-Sep-05 01:01N 25°46' W 080°09'0 0.0
2017-Sep-05 00:28N 25°46' W 080°09'0 0.0
2017-Sep-04 23:58N 25°46' W 080°09'0 0.0
2017-Sep-04 23:28N 25°46' W 080°09'0 0.0
2017-Sep-04 22:58N 25°46' W 080°09'0 0.0
2017-Sep-04 22:31N 25°46' W 080°09'0 0.0
2017-Sep-04 22:00N 25°46' W 080°09'0 0.0
2017-Sep-04 21:28N 25°46' W 080°09'0 0.0
2017-Sep-04 20:58N 25°46' W 080°09'0 0.0
2017-Sep-04 20:28N 25°46' W 080°09'0 0.0
2017-Sep-04 19:58N 25°46' W 080°09'0 0.0
2017-Sep-04 19:31N 25°46' W 080°09'0 0.0
2017-Sep-04 19:00N 25°46' W 080°09'0 0.0
2017-Sep-04 18:22N 25°46' W 080°09'0 0.0
2017-Sep-04 18:00N 25°46' W 080°09'0 0.0
2017-Sep-04 17:30N 25°46' W 080°09'0 0.0
2017-Sep-04 16:57N 25°46' W 080°09'0 0.0
2017-Sep-04 16:28N 25°46' W 080°09'0 0.0
2017-Sep-04 16:01N 25°46' W 080°09'0 0.0
2017-Sep-04 15:28N 25°46' W 080°09'0 0.0
2017-Sep-04 15:01N 25°46' W 080°09'0 0.0
2017-Sep-04 14:28N 25°46' W 080°09'0 0.0
2017-Sep-04 13:57N 25°46' W 080°09'0 0.0
2017-Sep-04 13:31N 25°46' W 080°09'0 0.0
2017-Sep-04 13:01N 25°46' W 080°09'0 0.0
2017-Sep-04 12:28N 25°46' W 080°09'0 0.0
2017-Sep-04 12:00N 25°46' W 080°09'0 0.0
2017-Sep-04 11:27N 25°46' W 080°09'0 0.0
2017-Sep-04 11:01N 25°46' W 080°09'0 0.0
2017-Sep-04 10:30N 25°46' W 080°09'0 0.0
2017-Sep-04 10:01N 25°46' W 080°09'0 0.0
2017-Sep-04 09:27N 25°46' W 080°09'0 0.0
2017-Sep-04 09:00N 25°46' W 080°09'0 0.0
2017-Sep-04 08:30N 25°46' W 080°09'0 0.0
2017-Sep-04 08:00N 25°46' W 080°09'0 0.0
2017-Sep-04 07:30N 25°46' W 080°09'0 0.0
2017-Sep-04 06:57N 25°46' W 080°09'0 0.0
2017-Sep-04 06:30N 25°46' W 080°09'0 0.0
2017-Sep-04 06:00N 25°46' W 080°09'0 0.0
2017-Sep-04 05:30N 25°46' W 080°09'0 0.0
2017-Sep-04 05:00N 25°46' W 080°09'0 0.0
2017-Sep-04 04:30N 25°46' W 080°09'0 0.0
2017-Sep-04 04:00N 25°46' W 080°09'0 0.0
2017-Sep-04 03:30N 25°46' W 080°09'0 0.0
2017-Sep-04 03:00N 25°46' W 080°09'0 0.0
2017-Sep-04 02:30N 25°46' W 080°09'0 0.0
2017-Sep-04 02:00N 25°46' W 080°09'0 0.0
2017-Sep-04 01:24N 25°46' W 080°09'0 0.0
2017-Sep-04 01:00N 25°46' W 080°09'0 0.0
2017-Sep-04 00:27N 25°46' W 080°09'0 0.0
2017-Sep-03 23:54N 25°46' W 080°09'0 0.0
2017-Sep-03 23:30N 25°46' W 080°09'0 0.0
2017-Sep-03 22:57N 25°46' W 080°09'0 0.0
2017-Sep-03 22:30N 25°46' W 080°09'0 0.0
2017-Sep-03 21:57N 25°46' W 080°09'0 0.0
2017-Sep-03 21:30N 25°46' W 080°09'0 0.0
2017-Sep-03 21:00N 25°46' W 080°09'0 0.0
2017-Sep-03 20:30N 25°46' W 080°09'0 0.0
2017-Sep-03 20:00N 25°46' W 080°09'0 0.0
2017-Sep-03 19:30N 25°46' W 080°09'0 0.0
2017-Sep-03 19:00N 25°46' W 080°09'0 0.0
2017-Sep-03 18:30N 25°46' W 080°09'0 0.0
2017-Sep-03 18:00N 25°46' W 080°09'0 0.0
2017-Sep-03 17:30N 25°46' W 080°09'0 0.0
2017-Sep-03 17:00N 25°46' W 080°09'0 0.0
2017-Sep-03 16:30N 25°46' W 080°09'0 0.0
2017-Sep-03 15:51N 25°46' W 080°09'0 0.0
2017-Sep-03 15:30N 25°46' W 080°09'0 0.0
2017-Sep-03 15:00N 25°46' W 080°09'0 0.0
2017-Sep-03 14:00N 25°46' W 080°09'0 0.0
2017-Sep-03 13:30N 25°46' W 080°09'0 0.0
2017-Sep-03 12:57N 25°46' W 080°09'0 0.0
2017-Sep-03 12:30N 25°46' W 080°09'0 0.0
2017-Sep-03 12:00N 25°46' W 080°09'0 0.0
2017-Sep-03 11:27N 25°46' W 080°09'0 0.0
2017-Sep-03 10:54N 25°46' W 080°09'0 0.0
2017-Sep-03 10:30N 25°46' W 080°09'0 0.0
2017-Sep-03 10:00N 25°46' W 080°09'0 0.0
2017-Sep-03 09:30N 25°46' W 080°09'0 0.0
2017-Sep-03 08:54N 25°46' W 080°09'0 0.0
2017-Sep-03 08:30N 25°46' W 080°09'0 0.0
2017-Sep-03 08:00N 25°46' W 080°09'0 0.0
2017-Sep-03 07:30N 25°46' W 080°09'0 0.0
2017-Sep-03 07:00N 25°46' W 080°09'0 0.0
2017-Sep-03 06:30N 25°46' W 080°09'0 0.0
2017-Sep-03 06:00N 25°46' W 080°09'0 0.0
2017-Sep-03 05:30N 25°46' W 080°09'0 0.0
2017-Sep-03 05:00N 25°46' W 080°09'0 0.0
2017-Sep-03 04:30N 25°46' W 080°09'0 0.0
2017-Sep-03 04:00N 25°46' W 080°09'0 0.0
2017-Sep-03 03:27N 25°46' W 080°09'0 0.0
2017-Sep-03 03:00N 25°46' W 080°09'0 0.0
2017-Sep-03 02:30N 25°46' W 080°09'0 0.0
2017-Sep-03 02:00N 25°46' W 080°09'0 0.0
2017-Sep-03 01:30N 25°46' W 080°09'0 0.0
2017-Sep-03 01:00N 25°46' W 080°09'0 0.0
2017-Sep-03 00:30N 25°46' W 080°09'0 0.0
2017-Sep-03 00:00N 25°46' W 080°09'0 0.0
2017-Sep-02 23:30N 25°46' W 080°09'0 0.0
2017-Sep-02 22:57N 25°46' W 080°09'0 0.0
2017-Sep-02 22:27N 25°46' W 080°09'0 0.0
2017-Sep-02 22:00N 25°46' W 080°09'0 0.0
2017-Sep-02 21:30N 25°46' W 080°09'0 0.0
2017-Sep-02 21:00N 25°46' W 080°09'0 0.0
2017-Sep-02 20:30N 25°46' W 080°09'0 0.0
2017-Sep-02 20:00N 25°46' W 080°09'0 0.0
2017-Sep-02 19:30N 25°46' W 080°09'0 0.0
2017-Sep-02 19:00N 25°46' W 080°09'0 0.0
2017-Sep-02 18:30N 25°46' W 080°09'0 0.0
2017-Sep-02 18:00N 25°46' W 080°09'0 0.0
2017-Sep-02 17:30N 25°46' W 080°09'0 0.0
2017-Sep-02 16:57N 25°46' W 080°09'0 0.0
2017-Sep-02 16:30N 25°46' W 080°09'0 0.0
2017-Sep-02 16:00N 25°46' W 080°09'0 0.0
2017-Sep-02 15:30N 25°46' W 080°09'0 0.0
2017-Sep-02 15:00N 25°46' W 080°09'0 0.0
2017-Sep-02 14:30N 25°46' W 080°09'0 0.0
2017-Sep-02 14:00N 25°46' W 080°09'0 0.0
2017-Sep-02 13:30N 25°46' W 080°09'0 0.0
2017-Sep-02 13:00N 25°46' W 080°09'0 0.0
2017-Sep-02 12:30N 25°46' W 080°09'0 0.0
2017-Sep-02 12:00N 25°46' W 080°09'0 0.0
2017-Sep-02 11:30N 25°46' W 080°09'0 0.0
2017-Sep-02 11:00N 25°46' W 080°09'0 0.0
2017-Sep-02 10:30N 25°46' W 080°09'0 0.0
2017-Sep-02 10:00N 25°46' W 080°09'0 0.0
2017-Sep-02 09:30N 25°46' W 080°09'0 0.0
2017-Sep-02 09:00N 25°46' W 080°09'0 0.0
2017-Sep-02 08:30N 25°46' W 080°09'0 0.0
2017-Sep-02 08:00N 25°46' W 080°09'0 0.0
2017-Sep-02 07:30N 25°46' W 080°09'0 0.0
2017-Sep-02 06:57N 25°46' W 080°09'0 0.0
2017-Sep-02 06:30N 25°46' W 080°09'0 0.0
2017-Sep-02 06:00N 25°46' W 080°09'0 0.0
2017-Sep-02 05:30N 25°46' W 080°09'0 0.0
2017-Sep-02 04:57N 25°46' W 080°09'0 0.0
2017-Sep-02 04:30N 25°46' W 080°09'0 0.0
2017-Sep-02 03:54N 25°46' W 080°09'0 0.0
2017-Sep-02 03:30N 25°46' W 080°09'0 0.0
2017-Sep-02 03:00N 25°46' W 080°09'0 0.0
2017-Sep-02 02:30N 25°46' W 080°09'0 0.0
2017-Sep-02 02:00N 25°46' W 080°09'0 0.0
2017-Sep-02 01:30N 25°46' W 080°09'0 0.0
2017-Sep-02 00:57N 25°46' W 080°09'0 0.0
2017-Sep-02 00:30N 25°46' W 080°09'0 0.0
2017-Sep-02 00:00N 25°46' W 080°09'0 0.0
2017-Sep-01 23:30N 25°46' W 080°09'0 0.0
2017-Sep-01 23:00N 25°46' W 080°09'0 0.0
2017-Sep-01 22:30N 25°46' W 080°09'0 0.0
2017-Sep-01 22:00N 25°46' W 080°09'0 0.0
2017-Sep-01 21:30N 25°46' W 080°09'0 0.0
2017-Sep-01 21:00N 25°46' W 080°09'0 0.0
2017-Sep-01 20:30N 25°46' W 080°09'0 0.0
2017-Sep-01 20:00N 25°46' W 080°09'0 0.0
2017-Sep-01 19:30N 25°46' W 080°09'0 0.0
2017-Sep-01 19:00N 25°46' W 080°09'0 0.0
2017-Sep-01 18:30N 25°46' W 080°09'0 0.0
2017-Sep-01 18:00N 25°46' W 080°09'0 0.0
2017-Sep-01 17:30N 25°46' W 080°09'0 0.0
2017-Sep-01 17:00N 25°46' W 080°09'0 0.0
2017-Sep-01 16:30N 25°46' W 080°09'0 0.0
2017-Sep-01 16:00N 25°46' W 080°09'0 0.0
2017-Sep-01 15:27N 25°46' W 080°09'0 0.0
2017-Sep-01 15:00N 25°46' W 080°09'0 0.0
2017-Sep-01 14:30N 25°46' W 080°09'0 0.0
2017-Sep-01 14:00N 25°46' W 080°09'0 0.0
2017-Sep-01 13:30N 25°46' W 080°09'0 0.0
2017-Sep-01 12:57N 25°46' W 080°09'0 0.0
2017-Sep-01 12:30N 25°46' W 080°09'0 0.0
2017-Sep-01 12:00N 25°46' W 080°09'0 0.0
2017-Sep-01 11:30N 25°46' W 080°09'0 0.0
2017-Sep-01 10:57N 25°46' W 080°09'0 0.0
2017-Sep-01 10:30N 25°46' W 080°09'0 0.0
2017-Sep-01 09:57N 25°46' W 080°09'0 0.0
2017-Sep-01 09:30N 25°46' W 080°09'0 0.0
2017-Sep-01 09:00N 25°46' W 080°09'0 0.0
2017-Sep-01 08:27N 25°46' W 080°09'0 0.0
2017-Sep-01 08:00N 25°46' W 080°09'0 0.0
2017-Sep-01 07:30N 25°46' W 080°09'0 0.0
2017-Sep-01 07:00N 25°46' W 080°09'0 0.0
2017-Sep-01 06:30N 25°46' W 080°09'0 0.0
2017-Sep-01 06:00N 25°46' W 080°09'0 0.0
2017-Sep-01 05:30N 25°46' W 080°09'0 0.0
2017-Sep-01 05:00N 25°46' W 080°09'0 0.0
2017-Sep-01 04:30N 25°46' W 080°09'0 0.0
2017-Sep-01 04:00N 25°46' W 080°09'0 0.0
2017-Sep-01 03:30N 25°46' W 080°09'0 0.0
2017-Sep-01 03:00N 25°46' W 080°09'0 0.0
2017-Sep-01 02:30N 25°46' W 080°09'0 0.0
2017-Sep-01 02:00N 25°46' W 080°09'0 0.0
2017-Sep-01 01:30N 25°46' W 080°09'0 0.0
2017-Sep-01 01:00N 25°46' W 080°09'0 0.0
2017-Sep-01 00:30N 25°46' W 080°09'0 0.0
2017-Aug-31 23:57N 25°46' W 080°09'0 0.0
2017-Aug-31 23:30N 25°46' W 080°09'0 0.0
2017-Aug-31 23:00N 25°46' W 080°09'0 0.0
2017-Aug-31 22:30N 25°46' W 080°09'0 0.0
2017-Aug-31 21:57N 25°46' W 080°09'0 0.0
2017-Aug-31 21:30N 25°46' W 080°09'0 0.0
2017-Aug-31 20:54N 25°46' W 080°09'0 0.0
2017-Aug-31 20:30N 25°46' W 080°09'0 0.0
2017-Aug-31 20:00N 25°46' W 080°09'0 0.0
2017-Aug-31 19:27N 25°46' W 080°09'0 0.0
2017-Aug-31 19:00N 25°46' W 080°09'0 0.0
2017-Aug-31 18:27N 25°46' W 080°09'0 0.0
2017-Aug-31 18:00N 25°46' W 080°09'0 0.0
2017-Aug-31 17:30N 25°46' W 080°09'0 0.0
2017-Aug-31 17:00N 25°46' W 080°09'0 0.0
2017-Aug-31 16:30N 25°46' W 080°09'0 0.0
2017-Aug-31 16:00N 25°46' W 080°09'0 0.0
2017-Aug-31 15:30N 25°46' W 080°09'0 0.0
2017-Aug-31 15:00N 25°46' W 080°09'0 0.0
2017-Aug-31 14:30N 25°46' W 080°09'0 0.0
2017-Aug-31 14:00N 25°46' W 080°09'0 0.0
2017-Aug-31 13:30N 25°46' W 080°09'0 0.0
2017-Aug-31 13:00N 25°46' W 080°09'0 0.0
2017-Aug-31 12:30N 25°46' W 080°09'0 0.0
2017-Aug-31 12:00N 25°46' W 080°09'0 0.0
2017-Aug-31 11:30N 25°46' W 080°09'0 0.0
2017-Aug-31 11:00N 25°46' W 080°09'0 0.0
2017-Aug-31 10:30N 25°46' W 080°09'0 0.0
2017-Aug-31 09:57N 25°46' W 080°09'0 0.0
2017-Aug-31 09:27N 25°46' W 080°09'0 0.0
2017-Aug-31 08:54N 25°46' W 080°09'0 0.0
2017-Aug-31 08:27N 25°46' W 080°09'0 0.0
2017-Aug-31 08:00N 25°46' W 080°09'0 0.0
2017-Aug-31 07:30N 25°46' W 080°09'0 0.0
2017-Aug-31 06:57N 25°46' W 080°09'0 0.0
2017-Aug-31 06:30N 25°46' W 080°09'0 0.0
2017-Aug-31 05:57N 25°46' W 080°09'0 0.0
2017-Aug-31 05:30N 25°46' W 080°09'0 0.0
2017-Aug-31 04:57N 25°46' W 080°09'0 0.0
2017-Aug-31 04:30N 25°46' W 080°09'0 0.0
2017-Aug-31 04:00N 25°46' W 080°09'0 0.0
2017-Aug-31 03:30N 25°46' W 080°09'0 0.0
2017-Aug-31 03:00N 25°46' W 080°09'0 0.0
2017-Aug-31 02:30N 25°46' W 080°09'0 0.0
2017-Aug-31 02:00N 25°46' W 080°09'0 0.0
2017-Aug-31 01:30N 25°46' W 080°09'0 0.0
2017-Aug-31 01:00N 25°46' W 080°09'0 0.0
2017-Aug-31 00:30N 25°46' W 080°09'0 0.0
2017-Aug-30 23:57N 25°46' W 080°09'0 0.0
2017-Aug-30 23:30N 25°46' W 080°09'0 0.0
2017-Aug-30 22:57N 25°46' W 080°09'0 0.0
2017-Aug-30 22:30N 25°46' W 080°09'0 0.0
2017-Aug-30 22:00N 25°46' W 080°09'0 0.0
2017-Aug-30 21:30N 25°46' W 080°09'0 0.0
2017-Aug-30 21:00N 25°46' W 080°09'0 0.0
2017-Aug-30 20:30N 25°46' W 080°09'0 0.0
2017-Aug-30 20:00N 25°46' W 080°09'0 0.0
2017-Aug-30 19:21N 25°46' W 080°09'0 0.0
2017-Aug-30 18:57N 25°46' W 080°09'0 0.0
2017-Aug-30 18:30N 25°46' W 080°09'0 0.0
2017-Aug-30 18:00N 25°46' W 080°09'0 0.0
2017-Aug-30 17:30N 25°46' W 080°09'0 0.0
2017-Aug-30 16:54N 25°46' W 080°09'0 0.0
2017-Aug-30 16:27N 25°46' W 080°09'0 0.0
2017-Aug-30 15:54N 25°46' W 080°09'0 0.0
2017-Aug-30 15:30N 25°46' W 080°09'0 0.0
2017-Aug-30 15:00N 25°46' W 080°09'0 0.0
2017-Aug-30 14:30N 25°46' W 080°09'0 0.0
2017-Aug-30 13:57N 25°46' W 080°09'0 0.0
2017-Aug-30 13:30N 25°46' W 080°09'0 0.0
2017-Aug-30 13:00N 25°46' W 080°09'0 0.0
2017-Aug-30 12:30N 25°46' W 080°09'0 0.0
2017-Aug-30 12:00N 25°46' W 080°09'0 0.0
2017-Aug-30 11:30N 25°46' W 080°09'0 0.0
2017-Aug-30 11:00N 25°46' W 080°09'0 0.0
2017-Aug-30 10:30N 25°46' W 080°09'0 0.0
2017-Aug-30 10:00N 25°46' W 080°09'0 0.0
2017-Aug-30 09:30N 25°46' W 080°09'0 0.0
2017-Aug-30 09:00N 25°46' W 080°09'0 0.0
2017-Aug-30 08:30N 25°46' W 080°09'0 0.0
2017-Aug-30 08:00N 25°46' W 080°09'0 0.0
2017-Aug-30 07:30N 25°46' W 080°09'0 0.0
2017-Aug-30 07:00N 25°46' W 080°09'0 0.0
2017-Aug-30 06:30N 25°46' W 080°09'0 0.0
2017-Aug-30 06:00N 25°46' W 080°09'0 0.0
2017-Aug-30 05:30N 25°46' W 080°09'0 0.0
2017-Aug-30 05:00N 25°46' W 080°09'0 0.0
2017-Aug-30 04:30N 25°46' W 080°09'0 0.0
2017-Aug-30 04:00N 25°46' W 080°09'0 0.0
2017-Aug-30 03:30N 25°46' W 080°09'0 0.0
2017-Aug-30 03:00N 25°46' W 080°09'0 0.0
2017-Aug-30 02:30N 25°46' W 080°09'0 0.0
2017-Aug-30 01:57N 25°46' W 080°09'0 0.0
2017-Aug-30 01:30N 25°46' W 080°09'0 0.0
2017-Aug-30 01:00N 25°46' W 080°09'0 0.0
2017-Aug-30 00:27N 25°46' W 080°09'0 0.0
2017-Aug-29 23:57N 25°46' W 080°09'0 0.0
2017-Aug-29 23:30N 25°46' W 080°09'0 0.0
2017-Aug-29 23:00N 25°46' W 080°09'0 0.0
2017-Aug-29 22:27N 25°46' W 080°09'0 0.0
2017-Aug-29 22:00N 25°46' W 080°09'0 0.0
2017-Aug-29 21:30N 25°46' W 080°09'0 0.0
2017-Aug-29 21:00N 25°46' W 080°09'0 0.0
2017-Aug-29 20:30N 25°46' W 080°09'0 0.0
2017-Aug-29 19:57N 25°46' W 080°09'0 0.0
2017-Aug-29 19:30N 25°46' W 080°09'0 0.0
2017-Aug-29 19:00N 25°46' W 080°09'0 0.0
2017-Aug-29 18:30N 25°46' W 080°09'0 0.0
2017-Aug-29 18:00N 25°46' W 080°09'0 0.0
2017-Aug-29 17:30N 25°46' W 080°09'0 0.0
2017-Aug-29 17:00N 25°46' W 080°09'0 0.0
2017-Aug-29 16:30N 25°46' W 080°09'0 0.0
2017-Aug-29 16:00N 25°46' W 080°09'0 0.0
2017-Aug-29 15:30N 25°46' W 080°09'0 0.0
2017-Aug-29 15:00N 25°46' W 080°09'0 0.0
2017-Aug-29 14:30N 25°46' W 080°09'0 0.0
2017-Aug-29 14:00N 25°46' W 080°09'0 0.0
2017-Aug-29 13:30N 25°46' W 080°09'0 0.0
2017-Aug-29 13:00N 25°46' W 080°09'0 0.0
2017-Aug-29 12:30N 25°46' W 080°09'0 0.0
2017-Aug-29 11:57N 25°46' W 080°09'0 0.0
2017-Aug-29 11:27N 25°46' W 080°09'0 0.0
2017-Aug-29 11:00N 25°46' W 080°09'0 0.0
2017-Aug-29 10:30N 25°46' W 080°09'0 0.0
2017-Aug-29 10:00N 25°46' W 080°09'0 0.0
2017-Aug-29 09:27N 25°46' W 080°09'0 0.0
2017-Aug-29 08:57N 25°46' W 080°09'0 0.0
2017-Aug-29 08:27N 25°46' W 080°09'0 0.0
2017-Aug-29 07:57N 25°46' W 080°09'0 0.0
2017-Aug-29 07:30N 25°46' W 080°09'0 0.0
2017-Aug-29 07:00N 25°46' W 080°09'0 0.0
2017-Aug-29 06:30N 25°46' W 080°09'0 0.0
2017-Aug-29 06:00N 25°46' W 080°09'0 0.0
2017-Aug-29 05:30N 25°46' W 080°09'0 0.0
2017-Aug-29 05:00N 25°46' W 080°09'0 0.0
2017-Aug-29 04:30N 25°46' W 080°09'0 0.0
2017-Aug-29 04:00N 25°46' W 080°09'0 0.0
2017-Aug-29 03:30N 25°46' W 080°09'0 0.0
2017-Aug-29 02:57N 25°46' W 080°09'0 0.0
2017-Aug-29 02:30N 25°46' W 080°09'0 0.0
2017-Aug-29 02:00N 25°46' W 080°09'0 0.0
2017-Aug-29 01:30N 25°46' W 080°09'0 0.0
2017-Aug-29 01:00N 25°46' W 080°09'0 0.0
2017-Aug-29 00:30N 25°46' W 080°09'0 0.0
2017-Aug-29 00:00N 25°46' W 080°09'0 0.0
2017-Aug-28 23:30N 25°46' W 080°09'0 0.0
2017-Aug-28 22:51N 25°46' W 080°09'0 0.0
2017-Aug-28 22:30N 25°46' W 080°09'0 0.0
2017-Aug-28 21:57N 25°46' W 080°09'0 0.0
2017-Aug-28 21:30N 25°46' W 080°09'0 0.0
2017-Aug-28 21:00N 25°46' W 080°09'0 0.0
2017-Aug-28 20:30N 25°46' W 080°09'0 0.0
2017-Aug-28 20:00N 25°46' W 080°09'0 0.0
2017-Aug-28 19:30N 25°46' W 080°09'0 0.0
2017-Aug-28 18:54N 25°46' W 080°09'0 0.0
2017-Aug-28 18:30N 25°46' W 080°09'0 0.0
2017-Aug-28 17:57N 25°46' W 080°09'0 0.0
2017-Aug-28 17:30N 25°46' W 080°09'  
Track history (hours):
 
Tides and Currents Weather Stations Pressure Air Temp Water Temp Dewpoint Dewpoint Depression Visibility Wind Speed Wind Dir Waves Ship Positions

Ironman

Last reported at 2017-Sep-07 17:14 UTC. Time now 2017-Sep-20 02:00 UTC.
Position N 26°06' W 080°10'.
Warning: this ship's position is 12 days out of date.

Length 38 m; draft 2 m.

Type: Pleasure craft. MMSI: 378112331.

Date/timePositionNaut miles runAvg speedWind from/ knotsBaromVisibWave heightAir tempDewpointWater temp
2017-Sep-07 17:14N 26°06' W 080°10'0 0.0
2017-Sep-07 16:44N 26°06' W 080°10'0 0.0
2017-Sep-07 16:29N 26°06' W 080°10'0 0.0
2017-Sep-07 15:59N 26°06' W 080°10'0 0.0
2017-Sep-07 15:29N 26°06' W 080°10'0 0.0
2017-Sep-07 14:59N 26°06' W 080°10'0 0.0
2017-Sep-07 14:29N 26°06' W 080°10'0 0.0
2017-Sep-07 13:59N 26°06' W 080°10'0 0.0
2017-Sep-07 13:30N 26°06' W 080°10'0 0.0
2017-Sep-07 13:00N 26°06' W 080°10'0 0.0
2017-Sep-07 12:30N 26°06' W 080°10'0 0.0
2017-Sep-07 12:00N 26°06' W 080°10'0 0.0
2017-Sep-07 11:30N 26°06' W 080°10'0 0.0
2017-Sep-07 11:00N 26°06' W 080°10'0 0.0
2017-Sep-07 10:30N 26°06' W 080°10'0 0.0
2017-Sep-07 10:00N 26°06' W 080°10'0 0.0
2017-Sep-07 09:30N 26°06' W 080°10'0 0.0
2017-Sep-07 09:00N 26°06' W 080°10'0 0.0
2017-Sep-07 08:30N 26°06' W 080°10'0 0.0
2017-Sep-07 08:00N 26°06' W 080°10'0 0.0
2017-Sep-07 07:30N 26°06' W 080°10'0 0.0
2017-Sep-07 07:00N 26°06' W 080°10'0 0.0
2017-Sep-07 06:30N 26°06' W 080°10'0 0.0
2017-Sep-07 06:00N 26°06' W 080°10'0 0.0
2017-Sep-07 05:30N 26°06' W 080°10'0 0.0
2017-Sep-07 05:00N 26°06' W 080°10'0 0.0
2017-Sep-07 04:30N 26°06' W 080°10'0 0.0
2017-Sep-07 04:00N 26°06' W 080°10'0 0.0
2017-Sep-07 03:30N 26°06' W 080°10'0 0.0
2017-Sep-07 03:00N 26°06' W 080°10'0 0.0
2017-Sep-07 02:30N 26°06' W 080°10'0 0.0
2017-Sep-07 02:00N 26°06' W 080°10'0 0.0
2017-Sep-07 01:30N 26°06' W 080°10'0 0.0
2017-Sep-07 01:01N 26°06' W 080°10'0 0.0
2017-Sep-07 00:30N 26°06' W 080°10'0 0.0
2017-Sep-07 00:00N 26°06' W 080°10'0 0.1
2017-Sep-06 23:30N 26°06' W 080°10'2 3.7
2017-Sep-06 23:00N 26°07' W 080°08'2 3.7
2017-Sep-06 22:30N 26°06' W 080°07'2 5.0
2017-Sep-06 22:01N 26°05' W 080°04'0 0.5
2017-Sep-06 21:30N 26°05' W 080°05'0 0.1
2017-Sep-06 21:00N 26°05' W 080°05'0 0.1
2017-Sep-06 20:30N 26°04' W 080°05'2 4.3
2017-Sep-06 20:00N 26°02' W 080°05'612.2
2017-Sep-06 19:30N 25°56' W 080°05'611.2
2017-Sep-06 19:00N 25°51' W 080°05'2 4.0
2017-Sep-06 18:31N 25°49' W 080°06'3 6.7
2017-Sep-06 18:00N 25°45' W 080°07'2 3.2
2017-Sep-06 17:28N 25°46' W 080°08'0 0.0
2017-Sep-06 16:55N 25°46' W 080°08'0 0.0
2017-Sep-06 16:28N 25°46' W 080°08'0 0.0
2017-Sep-06 15:58N 25°46' W 080°08'0 0.2
2017-Sep-06 15:28N 25°46' W 080°09'0 0.0
2017-Sep-06 14:58N 25°46' W 080°09'0 0.0
2017-Sep-06 14:25N 25°46' W 080°09'0 0.0
2017-Sep-06 13:58N 25°46' W 080°09'0 0.0
2017-Sep-06 13:28N 25°46' W 080°09'0 0.0
2017-Sep-06 12:55N 25°46' W 080°09'0 0.0
2017-Sep-06 12:28N 25°46' W 080°09'0 0.0
2017-Sep-06 11:58N 25°46' W 080°09'0 0.0
2017-Sep-06 11:25N 25°46' W 080°09'0 0.0
2017-Sep-06 10:58N 25°46' W 080°09'0 0.0
2017-Sep-06 10:28N 25°46' W 080°09'0 0.0
2017-Sep-06 09:58N 25°46' W 080°09'0 0.0
2017-Sep-06 09:25N 25°46' W 080°09'0 0.0
2017-Sep-06 08:58N 25°46' W 080°09'0 0.0
2017-Sep-06 08:28N 25°46' W 080°09'0 0.0
2017-Sep-06 07:58N 25°46' W 080°09'0 0.0
2017-Sep-06 07:28N 25°46' W 080°09'0 0.0
2017-Sep-06 06:58N 25°46' W 080°09'0 0.0
2017-Sep-06 06:28N 25°46' W 080°09'0 0.0
2017-Sep-06 05:58N 25°46' W 080°09'0 0.0
2017-Sep-06 05:28N 25°46' W 080°09'0 0.0
2017-Sep-06 04:58N 25°46' W 080°09'0 0.0
2017-Sep-06 04:28N 25°46' W 080°09'0 0.0
2017-Sep-06 03:58N 25°46' W 080°09'0 0.0
2017-Sep-06 03:28N 25°46' W 080°09'0 0.0
2017-Sep-06 02:52N 25°46' W 080°09'0 0.0
2017-Sep-06 02:25N 25°46' W 080°09'0 0.0
2017-Sep-06 01:58N 25°46' W 080°09'0 0.0
2017-Sep-06 01:28N 25°46' W 080°09'0 0.0
2017-Sep-06 00:52N 25°46' W 080°09'0 0.0
2017-Sep-06 00:28N 25°46' W 080°09'0 0.0
2017-Sep-05 23:58N 25°46' W 080°09'0 0.0
2017-Sep-05 23:19N 25°46' W 080°09'0 0.0
2017-Sep-05 22:55N 25°46' W 080°09'0 0.0
2017-Sep-05 22:28N 25°46' W 080°09'0 0.0
2017-Sep-05 21:55N 25°46' W 080°09'0 0.0
2017-Sep-05 21:28N 25°46' W 080°09'0 0.0
2017-Sep-05 20:58N 25°46' W 080°09'0 0.0
2017-Sep-05 20:28N 25°46' W 080°09'0 0.0
2017-Sep-05 19:58N 25°46' W 080°09'0 0.0
2017-Sep-05 19:28N 25°46' W 080°09'0 0.0
2017-Sep-05 18:58N 25°46' W 080°09'0 0.0
2017-Sep-05 18:28N 25°46' W 080°09'0 0.0
2017-Sep-05 17:58N 25°46' W 080°09'0 0.0
2017-Sep-05 17:28N 25°46' W 080°09'0 0.0
2017-Sep-05 16:58N 25°46' W 080°09'0 0.0
2017-Sep-05 16:28N 25°46' W 080°09'0 0.0
2017-Sep-05 15:58N 25°46' W 080°09'0 0.0
2017-Sep-05 15:28N 25°46' W 080°09'0 0.0
2017-Sep-05 14:58N 25°46' W 080°09'0 0.0
2017-Sep-05 14:28N 25°46' W 080°09'0 0.0
2017-Sep-05 13:52N 25°46' W 080°09'0 0.0
2017-Sep-05 13:25N 25°46' W 080°09'0 0.0
2017-Sep-05 12:55N 25°46' W 080°09'0 0.0
2017-Sep-05 12:28N 25°46' W 080°09'0 0.0
2017-Sep-05 11:58N 25°46' W 080°09'0 0.0
2017-Sep-05 11:28N 25°46' W 080°09'0 0.0
2017-Sep-05 10:52N 25°46' W 080°09'0 0.0
2017-Sep-05 10:31N 25°46' W 080°09'0 0.0
2017-Sep-05 09:58N 25°46' W 080°09'0 0.0
2017-Sep-05 09:28N 25°46' W 080°09'0 0.0
2017-Sep-05 08:58N 25°46' W 080°09'0 0.0
2017-Sep-05 08:28N 25°46' W 080°09'0 0.0
2017-Sep-05 07:58N 25°46' W 080°09'0 0.0
2017-Sep-05 07:28N 25°46' W 080°09'0 0.0
2017-Sep-05 06:55N 25°46' W 080°09'0 0.0
2017-Sep-05 06:28N 25°46' W 080°09'0 0.0
2017-Sep-05 05:55N 25°46' W 080°09'0 0.0
2017-Sep-05 05:28N 25°46' W 080°09'0 0.0
2017-Sep-05 04:58N 25°46' W 080°09'0 0.0
2017-Sep-05 04:28N 25°46' W 080°09'0 0.0
2017-Sep-05 03:58N 25°46' W 080°09'0 0.0
2017-Sep-05 03:28N 25°46' W 080°09'0 0.0
2017-Sep-05 02:58N 25°46' W 080°09'0 0.0
2017-Sep-05 02:28N 25°46' W 080°09'0 0.0
2017-Sep-05 02:00N 25°46' W 080°09'0 0.0
2017-Sep-05 01:28N 25°46' W 080°09'0 0.0
2017-Sep-05 01:01N 25°46' W 080°09'0 0.0
2017-Sep-05 00:28N 25°46' W 080°09'0 0.0
2017-Sep-04 23:58N 25°46' W 080°09'0 0.0
2017-Sep-04 23:28N 25°46' W 080°09'0 0.0
2017-Sep-04 22:58N 25°46' W 080°09'0 0.0
2017-Sep-04 22:31N 25°46' W 080°09'0 0.0
2017-Sep-04 22:00N 25°46' W 080°09'0 0.0
2017-Sep-04 21:28N 25°46' W 080°09'0 0.0
2017-Sep-04 20:58N 25°46' W 080°09'0 0.0
2017-Sep-04 20:28N 25°46' W 080°09'0 0.0
2017-Sep-04 19:58N 25°46' W 080°09'0 0.0
2017-Sep-04 19:31N 25°46' W 080°09'0 0.0
2017-Sep-04 19:00N 25°46' W 080°09'0 0.0
2017-Sep-04 18:22N 25°46' W 080°09'0 0.0
2017-Sep-04 18:00N 25°46' W 080°09'0 0.0
2017-Sep-04 17:30N 25°46' W 080°09'0 0.0
2017-Sep-04 16:57N 25°46' W 080°09'0 0.0
2017-Sep-04 16:28N 25°46' W 080°09'0 0.0
2017-Sep-04 16:01N 25°46' W 080°09'0 0.0
2017-Sep-04 15:28N 25°46' W 080°09'0 0.0
2017-Sep-04 15:01N 25°46' W 080°09'0 0.0
2017-Sep-04 14:28N 25°46' W 080°09'0 0.0
2017-Sep-04 13:57N 25°46' W 080°09'0 0.0
2017-Sep-04 13:31N 25°46' W 080°09'0 0.0
2017-Sep-04 13:01N 25°46' W 080°09'0 0.0
2017-Sep-04 12:28N 25°46' W 080°09'0 0.0
2017-Sep-04 12:00N 25°46' W 080°09'0 0.0
2017-Sep-04 11:27N 25°46' W 080°09'0 0.0
2017-Sep-04 11:01N 25°46' W 080°09'0 0.0
2017-Sep-04 10:30N 25°46' W 080°09'0 0.0
2017-Sep-04 10:01N 25°46' W 080°09'0 0.0
2017-Sep-04 09:27N 25°46' W 080°09'0 0.0
2017-Sep-04 09:00N 25°46' W 080°09'0 0.0
2017-Sep-04 08:30N 25°46' W 080°09'0 0.0
2017-Sep-04 08:00N 25°46' W 080°09'0 0.0
2017-Sep-04 07:30N 25°46' W 080°09'0 0.0
2017-Sep-04 06:57N 25°46' W 080°09'0 0.0
2017-Sep-04 06:30N 25°46' W 080°09'0 0.0
2017-Sep-04 06:00N 25°46' W 080°09'0 0.0
2017-Sep-04 05:30N 25°46' W 080°09'0 0.0
2017-Sep-04 05:00N 25°46' W 080°09'0 0.0
2017-Sep-04 04:30N 25°46' W 080°09'0 0.0
2017-Sep-04 04:00N 25°46' W 080°09'0 0.0
2017-Sep-04 03:30N 25°46' W 080°09'0 0.0
2017-Sep-04 03:00N 25°46' W 080°09'0 0.0
2017-Sep-04 02:30N 25°46' W 080°09'0 0.0
2017-Sep-04 02:00N 25°46' W 080°09'0 0.0
2017-Sep-04 01:24N 25°46' W 080°09'0 0.0
2017-Sep-04 01:00N 25°46' W 080°09'0 0.0
2017-Sep-04 00:27N 25°46' W 080°09'0 0.0
2017-Sep-03 23:54N 25°46' W 080°09'0 0.0
2017-Sep-03 23:30N 25°46' W 080°09'0 0.0
2017-Sep-03 22:57N 25°46' W 080°09'0 0.0
2017-Sep-03 22:30N 25°46' W 080°09'0 0.0
2017-Sep-03 21:57N 25°46' W 080°09'0 0.0
2017-Sep-03 21:30N 25°46' W 080°09'0 0.0
2017-Sep-03 21:00N 25°46' W 080°09'0 0.0
2017-Sep-03 20:30N 25°46' W 080°09'0 0.0
2017-Sep-03 20:00N 25°46' W 080°09'0 0.0
2017-Sep-03 19:30N 25°46' W 080°09'0 0.0
2017-Sep-03 19:00N 25°46' W 080°09'0 0.0
2017-Sep-03 18:30N 25°46' W 080°09'0 0.0
2017-Sep-03 18:00N 25°46' W 080°09'0 0.0
2017-Sep-03 17:30N 25°46' W 080°09'0 0.0
2017-Sep-03 17:00N 25°46' W 080°09'0 0.0
2017-Sep-03 16:30N 25°46' W 080°09'0 0.0
2017-Sep-03 15:51N 25°46' W 080°09'0 0.0
2017-Sep-03 15:30N 25°46' W 080°09'0 0.0
2017-Sep-03 15:00N 25°46' W 080°09'0 0.0
2017-Sep-03 14:00N 25°46' W 080°09'0 0.0
2017-Sep-03 13:30N 25°46' W 080°09'0 0.0
2017-Sep-03 12:57N 25°46' W 080°09'0 0.0
2017-Sep-03 12:30N 25°46' W 080°09'0 0.0
2017-Sep-03 12:00N 25°46' W 080°09'0 0.0
2017-Sep-03 11:27N 25°46' W 080°09'0 0.0
2017-Sep-03 10:54N 25°46' W 080°09'0 0.0
2017-Sep-03 10:30N 25°46' W 080°09'0 0.0
2017-Sep-03 10:00N 25°46' W 080°09'0 0.0
2017-Sep-03 09:30N 25°46' W 080°09'0 0.0
2017-Sep-03 08:54N 25°46' W 080°09'0 0.0
2017-Sep-03 08:30N 25°46' W 080°09'0 0.0
2017-Sep-03 08:00N 25°46' W 080°09'0 0.0
2017-Sep-03 07:30N 25°46' W 080°09'0 0.0
2017-Sep-03 07:00N 25°46' W 080°09'0 0.0
2017-Sep-03 06:30N 25°46' W 080°09'0 0.0
2017-Sep-03 06:00N 25°46' W 080°09'0 0.0
2017-Sep-03 05:30N 25°46' W 080°09'0 0.0
2017-Sep-03 05:00N 25°46' W 080°09'0 0.0
2017-Sep-03 04:30N 25°46' W 080°09'0 0.0
2017-Sep-03 04:00N 25°46' W 080°09'0 0.0
2017-Sep-03 03:27N 25°46' W 080°09'0 0.0
2017-Sep-03 03:00N 25°46' W 080°09'0 0.0
2017-Sep-03 02:30N 25°46' W 080°09'0 0.0
2017-Sep-03 02:00N 25°46' W 080°09'0 0.0
2017-Sep-03 01:30N 25°46' W 080°09'0 0.0
2017-Sep-03 01:00N 25°46' W 080°09'0 0.0
2017-Sep-03 00:30N 25°46' W 080°09'0 0.0
2017-Sep-03 00:00N 25°46' W 080°09'0 0.0
2017-Sep-02 23:30N 25°46' W 080°09'0 0.0
2017-Sep-02 22:57N 25°46' W 080°09'0 0.0
2017-Sep-02 22:27N 25°46' W 080°09'0 0.0
2017-Sep-02 22:00N 25°46' W 080°09'0 0.0
2017-Sep-02 21:30N 25°46' W 080°09'0 0.0
2017-Sep-02 21:00N 25°46' W 080°09'0 0.0
2017-Sep-02 20:30N 25°46' W 080°09'0 0.0
2017-Sep-02 20:00N 25°46' W 080°09'0 0.0
2017-Sep-02 19:30N 25°46' W 080°09'0 0.0
2017-Sep-02 19:00N 25°46' W 080°09'0 0.0
2017-Sep-02 18:30N 25°46' W 080°09'0 0.0
2017-Sep-02 18:00N 25°46' W 080°09'0 0.0
2017-Sep-02 17:30N 25°46' W 080°09'0 0.0
2017-Sep-02 16:57N 25°46' W 080°09'0 0.0
2017-Sep-02 16:30N 25°46' W 080°09'0 0.0
2017-Sep-02 16:00N 25°46' W 080°09'0 0.0
2017-Sep-02 15:30N 25°46' W 080°09'0 0.0
2017-Sep-02 15:00N 25°46' W 080°09'0 0.0
2017-Sep-02 14:30N 25°46' W 080°09'0 0.0
2017-Sep-02 14:00N 25°46' W 080°09'0 0.0
2017-Sep-02 13:30N 25°46' W 080°09'0 0.0
2017-Sep-02 13:00N 25°46' W 080°09'0 0.0
2017-Sep-02 12:30N 25°46' W 080°09'0 0.0
2017-Sep-02 12:00N 25°46' W 080°09'0 0.0
2017-Sep-02 11:30N 25°46' W 080°09'0 0.0
2017-Sep-02 11:00N 25°46' W 080°09'0 0.0
2017-Sep-02 10:30N 25°46' W 080°09'0 0.0
2017-Sep-02 10:00N 25°46' W 080°09'0 0.0
2017-Sep-02 09:30N 25°46' W 080°09'0 0.0
2017-Sep-02 09:00N 25°46' W 080°09'0 0.0
2017-Sep-02 08:30N 25°46' W 080°09'0 0.0
2017-Sep-02 08:00N 25°46' W 080°09'0 0.0
2017-Sep-02 07:30N 25°46' W 080°09'0 0.0
2017-Sep-02 06:57N 25°46' W 080°09'0 0.0
2017-Sep-02 06:30N 25°46' W 080°09'0 0.0
2017-Sep-02 06:00N 25°46' W 080°09'0 0.0
2017-Sep-02 05:30N 25°46' W 080°09'0 0.0
2017-Sep-02 04:57N 25°46' W 080°09'0 0.0
2017-Sep-02 04:30N 25°46' W 080°09'0 0.0
2017-Sep-02 03:54N 25°46' W 080°09'0 0.0
2017-Sep-02 03:30N 25°46' W 080°09'0 0.0
2017-Sep-02 03:00N 25°46' W 080°09'0 0.0
2017-Sep-02 02:30N 25°46' W 080°09'0 0.0
2017-Sep-02 02:00N 25°46' W 080°09'0 0.0
2017-Sep-02 01:30N 25°46' W 080°09'0 0.0
2017-Sep-02 00:57N 25°46' W 080°09'0 0.0
2017-Sep-02 00:30N 25°46' W 080°09'0 0.0
2017-Sep-02 00:00N 25°46' W 080°09'0 0.0
2017-Sep-01 23:30N 25°46' W 080°09'0 0.0
2017-Sep-01 23:00N 25°46' W 080°09'0 0.0
2017-Sep-01 22:30N 25°46' W 080°09'0 0.0
2017-Sep-01 22:00N 25°46' W 080°09'0 0.0
2017-Sep-01 21:30N 25°46' W 080°09'0 0.0
2017-Sep-01 21:00N 25°46' W 080°09'0 0.0
2017-Sep-01 20:30N 25°46' W 080°09'0 0.0
2017-Sep-01 20:00N 25°46' W 080°09'0 0.0
2017-Sep-01 19:30N 25°46' W 080°09'0 0.0
2017-Sep-01 19:00N 25°46' W 080°09'0 0.0
2017-Sep-01 18:30N 25°46' W 080°09'0 0.0
2017-Sep-01 18:00N 25°46' W 080°09'0 0.0
2017-Sep-01 17:30N 25°46' W 080°09'0 0.0
2017-Sep-01 17:00N 25°46' W 080°09'0 0.0
2017-Sep-01 16:30N 25°46' W 080°09'0 0.0
2017-Sep-01 16:00N 25°46' W 080°09'0 0.0
2017-Sep-01 15:27N 25°46' W 080°09'0 0.0
2017-Sep-01 15:00N 25°46' W 080°09'0 0.0
2017-Sep-01 14:30N 25°46' W 080°09'0 0.0
2017-Sep-01 14:00N 25°46' W 080°09'0 0.0
2017-Sep-01 13:30N 25°46' W 080°09'0 0.0
2017-Sep-01 12:57N 25°46' W 080°09'0 0.0
2017-Sep-01 12:30N 25°46' W 080°09'0 0.0
2017-Sep-01 12:00N 25°46' W 080°09'0 0.0
2017-Sep-01 11:30N 25°46' W 080°09'0 0.0
2017-Sep-01 10:57N 25°46' W 080°09'0 0.0
2017-Sep-01 10:30N 25°46' W 080°09'0 0.0
2017-Sep-01 09:57N 25°46' W 080°09'0 0.0
2017-Sep-01 09:30N 25°46' W 080°09'0 0.0
2017-Sep-01 09:00N 25°46' W 080°09'0 0.0
2017-Sep-01 08:27N 25°46' W 080°09'0 0.0
2017-Sep-01 08:00N 25°46' W 080°09'0 0.0
2017-Sep-01 07:30N 25°46' W 080°09'0 0.0
2017-Sep-01 07:00N 25°46' W 080°09'0 0.0
2017-Sep-01 06:30N 25°46' W 080°09'0 0.0
2017-Sep-01 06:00N 25°46' W 080°09'0 0.0
2017-Sep-01 05:30N 25°46' W 080°09'0 0.0
2017-Sep-01 05:00N 25°46' W 080°09'0 0.0
2017-Sep-01 04:30N 25°46' W 080°09'0 0.0
2017-Sep-01 04:00N 25°46' W 080°09'0 0.0
2017-Sep-01 03:30N 25°46' W 080°09'0 0.0
2017-Sep-01 03:00N 25°46' W 080°09'0 0.0
2017-Sep-01 02:30N 25°46' W 080°09'0 0.0
2017-Sep-01 02:00N 25°46' W 080°09'0 0.0
2017-Sep-01 01:30N 25°46' W 080°09'0 0.0
2017-Sep-01 01:00N 25°46' W 080°09'0 0.0
2017-Sep-01 00:30N 25°46' W 080°09'0 0.0
2017-Aug-31 23:57N 25°46' W 080°09'0 0.0
2017-Aug-31 23:30N 25°46' W 080°09'0 0.0
2017-Aug-31 23:00N 25°46' W 080°09'0 0.0
2017-Aug-31 22:30N 25°46' W 080°09'0 0.0
2017-Aug-31 21:57N 25°46' W 080°09'0 0.0
2017-Aug-31 21:30N 25°46' W 080°09'0 0.0
2017-Aug-31 20:54N 25°46' W 080°09'0 0.0
2017-Aug-31 20:30N 25°46' W 080°09'0 0.0
2017-Aug-31 20:00N 25°46' W 080°09'0 0.0
2017-Aug-31 19:27N 25°46' W 080°09'0 0.0
2017-Aug-31 19:00N 25°46' W 080°09'0 0.0
2017-Aug-31 18:27N 25°46' W 080°09'0 0.0
2017-Aug-31 18:00N 25°46' W 080°09'0 0.0
2017-Aug-31 17:30N 25°46' W 080°09'0 0.0
2017-Aug-31 17:00N 25°46' W 080°09'0 0.0
2017-Aug-31 16:30N 25°46' W 080°09'0 0.0
2017-Aug-31 16:00N 25°46' W 080°09'0 0.0
2017-Aug-31 15:30N 25°46' W 080°09'0 0.0
2017-Aug-31 15:00N 25°46' W 080°09'0 0.0
2017-Aug-31 14:30N 25°46' W 080°09'0 0.0
2017-Aug-31 14:00N 25°46' W 080°09'0 0.0
2017-Aug-31 13:30N 25°46' W 080°09'0 0.0
2017-Aug-31 13:00N 25°46' W 080°09'0 0.0
2017-Aug-31 12:30N 25°46' W 080°09'0 0.0
2017-Aug-31 12:00N 25°46' W 080°09'0 0.0
2017-Aug-31 11:30N 25°46' W 080°09'0 0.0
2017-Aug-31 11:00N 25°46' W 080°09'0 0.0
2017-Aug-31 10:30N 25°46' W 080°09'0 0.0
2017-Aug-31 09:57N 25°46' W 080°09'0 0.0
2017-Aug-31 09:27N 25°46' W 080°09'0 0.0
2017-Aug-31 08:54N 25°46' W 080°09'0 0.0
2017-Aug-31 08:27N 25°46' W 080°09'0 0.0
2017-Aug-31 08:00N 25°46' W 080°09'0 0.0
2017-Aug-31 07:30N 25°46' W 080°09'0 0.0
2017-Aug-31 06:57N 25°46' W 080°09'0 0.0
2017-Aug-31 06:30N 25°46' W 080°09'0 0.0
2017-Aug-31 05:57N 25°46' W 080°09'0 0.0
2017-Aug-31 05:30N 25°46' W 080°09'0 0.0
2017-Aug-31 04:57N 25°46' W 080°09'0 0.0
2017-Aug-31 04:30N 25°46' W 080°09'0 0.0
2017-Aug-31 04:00N 25°46' W 080°09'0 0.0
2017-Aug-31 03:30N 25°46' W 080°09'0 0.0
2017-Aug-31 03:00N 25°46' W 080°09'0 0.0
2017-Aug-31 02:30N 25°46' W 080°09'0 0.0
2017-Aug-31 02:00N 25°46' W 080°09'0 0.0
2017-Aug-31 01:30N 25°46' W 080°09'0 0.0
2017-Aug-31 01:00N 25°46' W 080°09'0 0.0
2017-Aug-31 00:30N 25°46' W 080°09'0 0.0
2017-Aug-30 23:57N 25°46' W 080°09'0 0.0
2017-Aug-30 23:30N 25°46' W 080°09'0 0.0
2017-Aug-30 22:57N 25°46' W 080°09'0 0.0
2017-Aug-30 22:30N 25°46' W 080°09'0 0.0
2017-Aug-30 22:00N 25°46' W 080°09'0 0.0
2017-Aug-30 21:30N 25°46' W 080°09'0 0.0
2017-Aug-30 21:00N 25°46' W 080°09'0 0.0
2017-Aug-30 20:30N 25°46' W 080°09'0 0.0
2017-Aug-30 20:00N 25°46' W 080°09'0 0.0
2017-Aug-30 19:21N 25°46' W 080°09'0 0.0
2017-Aug-30 18:57N 25°46' W 080°09'0 0.0
2017-Aug-30 18:30N 25°46' W 080°09'0 0.0
2017-Aug-30 18:00N 25°46' W 080°09'0 0.0
2017-Aug-30 17:30N 25°46' W 080°09'0 0.0
2017-Aug-30 16:54N 25°46' W 080°09'0 0.0
2017-Aug-30 16:27N 25°46' W 080°09'0 0.0
2017-Aug-30 15:54N 25°46' W 080°09'0 0.0
2017-Aug-30 15:30N 25°46' W 080°09'0 0.0
2017-Aug-30 15:00N 25°46' W 080°09'0 0.0
2017-Aug-30 14:30N 25°46' W 080°09'0 0.0
2017-Aug-30 13:57N 25°46' W 080°09'0 0.0
2017-Aug-30 13:30N 25°46' W 080°09'0 0.0
2017-Aug-30 13:00N 25°46' W 080°09'0 0.0
2017-Aug-30 12:30N 25°46' W 080°09'0 0.0
2017-Aug-30 12:00N 25°46' W 080°09'0 0.0
2017-Aug-30 11:30N 25°46' W 080°09'0 0.0
2017-Aug-30 11:00N 25°46' W 080°09'0 0.0
2017-Aug-30 10:30N 25°46' W 080°09'0 0.0
2017-Aug-30 10:00N 25°46' W 080°09'0 0.0
2017-Aug-30 09:30N 25°46' W 080°09'0 0.0
2017-Aug-30 09:00N 25°46' W 080°09'0 0.0
2017-Aug-30 08:30N 25°46' W 080°09'0 0.0
2017-Aug-30 08:00N 25°46' W 080°09'0 0.0
2017-Aug-30 07:30N 25°46' W 080°09'0 0.0
2017-Aug-30 07:00N 25°46' W 080°09'0 0.0
2017-Aug-30 06:30N 25°46' W 080°09'0 0.0
2017-Aug-30 06:00N 25°46' W 080°09'0 0.0
2017-Aug-30 05:30N 25°46' W 080°09'0 0.0
2017-Aug-30 05:00N 25°46' W 080°09'0 0.0
2017-Aug-30 04:30N 25°46' W 080°09'0 0.0
2017-Aug-30 04:00N 25°46' W 080°09'0 0.0
2017-Aug-30 03:30N 25°46' W 080°09'0 0.0
2017-Aug-30 03:00N 25°46' W 080°09'0 0.0
2017-Aug-30 02:30N 25°46' W 080°09'0 0.0
2017-Aug-30 01:57N 25°46' W 080°09'0 0.0
2017-Aug-30 01:30N 25°46' W 080°09'0 0.0
2017-Aug-30 01:00N 25°46' W 080°09'0 0.0
2017-Aug-30 00:27N 25°46' W 080°09'0 0.0
2017-Aug-29 23:57N 25°46' W 080°09'0 0.0
2017-Aug-29 23:30N 25°46' W 080°09'0 0.0
2017-Aug-29 23:00N 25°46' W 080°09'0 0.0
2017-Aug-29 22:27N 25°46' W 080°09'0 0.0
2017-Aug-29 22:00N 25°46' W 080°09'0 0.0
2017-Aug-29 21:30N 25°46' W 080°09'0 0.0
2017-Aug-29 21:00N 25°46' W 080°09'0 0.0
2017-Aug-29 20:30N 25°46' W 080°09'0 0.0
2017-Aug-29 19:57N 25°46' W 080°09'0 0.0
2017-Aug-29 19:30N 25°46' W 080°09'0 0.0
2017-Aug-29 19:00N 25°46' W 080°09'0 0.0
2017-Aug-29 18:30N 25°46' W 080°09'0 0.0
2017-Aug-29 18:00N 25°46' W 080°09'0 0.0
2017-Aug-29 17:30N 25°46' W 080°09'0 0.0
2017-Aug-29 17:00N 25°46' W 080°09'0 0.0
2017-Aug-29 16:30N 25°46' W 080°09'0 0.0
2017-Aug-29 16:00N 25°46' W 080°09'0 0.0
2017-Aug-29 15:30N 25°46' W 080°09'0 0.0
2017-Aug-29 15:00N 25°46' W 080°09'0 0.0
2017-Aug-29 14:30N 25°46' W 080°09'0 0.0
2017-Aug-29 14:00N 25°46' W 080°09'0 0.0
2017-Aug-29 13:30N 25°46' W 080°09'0 0.0
2017-Aug-29 13:00N 25°46' W 080°09'0 0.0
2017-Aug-29 12:30N 25°46' W 080°09'0 0.0
2017-Aug-29 11:57N 25°46' W 080°09'0 0.0
2017-Aug-29 11:27N 25°46' W 080°09'0 0.0
2017-Aug-29 11:00N 25°46' W 080°09'0 0.0
2017-Aug-29 10:30N 25°46' W 080°09'0 0.0
2017-Aug-29 10:00N 25°46' W 080°09'0 0.0
2017-Aug-29 09:27N 25°46' W 080°09'0 0.0
2017-Aug-29 08:57N 25°46' W 080°09'0 0.0
2017-Aug-29 08:27N 25°46' W 080°09'0 0.0
2017-Aug-29 07:57N 25°46' W 080°09'0 0.0
2017-Aug-29 07:30N 25°46' W 080°09'0 0.0
2017-Aug-29 07:00N 25°46' W 080°09'0 0.0
2017-Aug-29 06:30N 25°46' W 080°09'0 0.0
2017-Aug-29 06:00N 25°46' W 080°09'0 0.0
2017-Aug-29 05:30N 25°46' W 080°09'0 0.0
2017-Aug-29 05:00N 25°46' W 080°09'0 0.0
2017-Aug-29 04:30N 25°46' W 080°09'0 0.0
2017-Aug-29 04:00N 25°46' W 080°09'0 0.0
2017-Aug-29 03:30N 25°46' W 080°09'0 0.0
2017-Aug-29 02:57N 25°46' W 080°09'0 0.0
2017-Aug-29 02:30N 25°46' W 080°09'0 0.0
2017-Aug-29 02:00N 25°46' W 080°09'0 0.0
2017-Aug-29 01:30N 25°46' W 080°09'0 0.0
2017-Aug-29 01:00N 25°46' W 080°09'0 0.0
2017-Aug-29 00:30N 25°46' W 080°09'0 0.0
2017-Aug-29 00:00N 25°46' W 080°09'0 0.0
2017-Aug-28 23:30N 25°46' W 080°09'0 0.0
2017-Aug-28 22:51N 25°46' W 080°09'0 0.0
2017-Aug-28 22:30N 25°46' W 080°09'0 0.0
2017-Aug-28 21:57N 25°46' W 080°09'0 0.0
2017-Aug-28 21:30N 25°46' W 080°09'0 0.0
2017-Aug-28 21:00N 25°46' W 080°09'0 0.0
2017-Aug-28 20:30N 25°46' W 080°09'0 0.0
2017-Aug-28 20:00N 25°46' W 080°09'0 0.0
2017-Aug-28 19:30N 25°46' W 080°09'0 0.0
2017-Aug-28 18:54N 25°46' W 080°09'0 0.0
2017-Aug-28 18:30N 25°46' W 080°09'0 0.0
2017-Aug-28 17:57N 25°46' W 080°09'0 0.0
2017-Aug-28 17:30N 25°46' W 080°09'  

Dump ship's entire track history